Terminal Aerodrome Forecast
Issued by NWS Los Angeles, CA

Home | Current Version | Previous Version | Text Only | Print | Product List | Glossary On
Versions: 1 2 3 4 5 6 7 8 9 10 11 12 13 14 15 16 17 18 19 20 21 22 23 24 25
000
FTUS46 KLOX 230500
TAFSMX
TAF
KSMX 230535Z 2306/2406 30007KT P6SM SCT006
     FM230700 35007KT P6SM SCT006 BKN250
     FM231400 35010KT P6SM BKN250
     FM231800 36014G20KT P6SM SKC
     FM232200 34010KT P6SM SKC
     FM240300 VRB05KT P6SM SKC=

USA.gov is the U.S. government's official web portal to all federal, state and local government web resources and services.